| time (UTC) | temp F | wind direction | speed knots | gust knots | rain 1hr in | rain 24hr in | rain mn in | humidity % | barometer mb |
| 20260506091853 | 55 | 147 | 0.0 | 0.0 | 0.00 | 0.00 | 0.00 | 87 | 1017.2 |
| 20260506091352 | 55 | 133 | 0.0 | 0.0 | 0.00 | 0.00 | 0.00 | 87 | 1017.0 |
| 20260506090848 | 55 | 139 | 0.0 | 0.0 | 0.00 | 0.00 | 0.00 | 87 | 1016.9 |
| 20260506090346 | 55 | 150 | 0.0 | 0.0 | 0.00 | 0.00 | 0.00 | 87 | 1017.0 |
| 20260506085843 | 55 | 126 | 0.0 | 0.0 | 0.00 | 0.00 | 0.00 | 87 | 1017.1 |
| 20260506085339 | 55 | 133 | 0.0 | 0.0 | 0.00 | 0.00 | 0.00 | 87 | 1017.2 |
| 20260506084835 | 55 | 137 | 0.0 | 0.0 | 0.00 | 0.00 | 0.00 | 87 | 1017.0 |
| 20260506084332 | 55 | 137 | 0.0 | 0.0 | 0.00 | 0.00 | 0.00 | 87 | 1016.9 |
| 20260506083829 | 55 | 139 | 0.0 | 0.0 | 0.00 | 0.00 | 0.00 | 87 | 1017.0 |
| 20260506083326 | 55 | 132 | 0.9 | 0.9 | 0.00 | 0.00 | 0.00 | 87 | 1016.8 |
| 20260506082824 | 55 | 141 | 0.0 | 0.0 | 0.00 | 0.00 | 0.00 | 87 | 1016.9 |
| 20260506082320 | 55 | 124 | 0.0 | 0.0 | 0.00 | 0.00 | 0.00 | 88 | 1017.0 |
| 20260506081816 | 55 | 126 | 0.0 | 0.0 | 0.00 | 0.00 | 0.00 | 88 | 1017.0 |
| 20260506081314 | 55 | 126 | 0.0 | 0.0 | 0.00 | 0.00 | 0.00 | 88 | 1017.0 |
| 20260506080812 | 55 | 125 | 0.0 | 0.0 | 0.00 | 0.00 | 0.00 | 88 | 1017.0 |
| 20260506080308 | 55 | 130 | 0.0 | 0.0 | 0.00 | 0.00 | 0.00 | 88 | 1016.9 |
| 20260506073252 | 55 | 132 | 0.0 | 0.0 | 0.00 | 0.00 | 0.00 | 88 | 1016.6 |
| 20260506072749 | 55 | 132 | 0.0 | 0.0 | 0.00 | 0.00 | 0.00 | 88 | 1016.5 |
| 20260506072246 | 55 | 89 | 0.0 | 0.0 | 0.00 | 0.00 | 0.00 | 88 | 1016.5 |
| 20260506071744 | 55 | 129 | 0.0 | 0.0 | 0.00 | 0.00 | 0.00 | 88 | 1016.5 |
| 20260506071242 | 56 | 120 | 0.0 | 0.0 | 0.00 | 0.00 | 0.00 | 88 | 1016.5 |
| 20260506070739 | 56 | 103 | 0.0 | 0.0 | 0.00 | 0.00 | 0.00 | 88 | 1016.4 |
| 20260506070235 | 56 | 133 | 0.0 | 0.0 | 0.00 | 0.00 | 0.00 | 88 | 1016.3 |
| 20260506062212 | 57 | 135 | 0.9 | 0.9 | 0.00 | 0.00 | 0.00 | 86 | 1016.2 |
| 20260506061708 | 57 | 131 | 0.9 | 0.9 | 0.00 | 0.00 | 0.00 | 85 | 1016.0 |
| 20260506061206 | 57 | 105 | 0.0 | 0.0 | 0.00 | 0.00 | 0.00 | 85 | 1016.0 |
| 20260506060705 | 57 | 110 | 0.0 | 0.9 | 0.00 | 0.00 | 0.00 | 84 | 1015.9 |
| 20260506060201 | 57 | 107 | 0.0 | 0.0 | 0.00 | 0.00 | 0.00 | 83 | 1016.0 |
| 20260506051133 | 59 | 138 | 0.0 | 0.0 | 0.00 | 0.00 | 0.00 | 79 | 1015.5 |
| 20260506050632 | 59 | 130 | 0.0 | 0.0 | 0.00 | 0.00 | 0.00 | 79 | 1015.5 |
| 20260506050128 | 59 | 142 | 0.0 | 0.0 | 0.00 | 0.00 | 0.00 | 78 | 1015.6 |
| 20260506045121 | 59 | 149 | 0.0 | 0.0 | 0.00 | 0.00 | 0.00 | 78 | 1015.3 |
| 20260506044619 | 59 | 160 | 0.0 | 0.0 | 0.00 | 0.00 | 0.00 | 77 | 1015.5 |
| 20260506044116 | 59 | 165 | 0.0 | 0.0 | 0.00 | 0.00 | 0.00 | 77 | 1015.5 |
| 20260506043613 | 60 | 168 | 0.0 | 0.0 | 0.00 | 0.00 | 0.00 | 76 | 1015.5 |
| 20260506043111 | 60 | 174 | 0.0 | 0.0 | 0.00 | 0.00 | 0.00 | 76 | 1015.4 |
| 20260506042610 | 60 | 176 | 0.0 | 0.0 | 0.00 | 0.00 | 0.00 | 76 | 1015.2 |
| 20260506042108 | 60 | 181 | 0.0 | 0.0 | 0.00 | 0.00 | 0.00 | 76 | 1015.2 |
| 20260506041606 | 60 | 180 | 0.0 | 0.0 | 0.00 | 0.00 | 0.00 | 76 | 1015.3 |
| 20260506041102 | 60 | 181 | 0.0 | 0.0 | 0.00 | 0.00 | 0.00 | 76 | 1015.1 |
| 20260506040601 | 60 | 185 | 0.0 | 0.0 | 0.00 | 0.00 | 0.00 | 75 | 1015.1 |
| 20260506040056 | 60 | 184 | 0.0 | 0.0 | 0.00 | 0.00 | 0.00 | 75 | 1015.3 |
| 20260506035553 | 60 | 185 | 0.0 | 0.0 | 0.00 | 0.00 | 0.00 | 75 | 1015.0 |
| 20260506035050 | 60 | 191 | 0.0 | 0.0 | 0.00 | 0.00 | 0.00 | 75 | 1014.8 |
| 20260506034548 | 60 | 177 | 0.0 | 0.0 | 0.00 | 0.00 | 0.00 | 75 | 1014.8 |
| 20260506034044 | 60 | 168 | 0.0 | 0.0 | 0.00 | 0.00 | 0.00 | 74 | 1014.9 |
| 20260506033542 | 61 | 166 | 0.0 | 0.0 | 0.00 | 0.00 | 0.00 | 74 | 1014.8 |
| 20260506033038 | 61 | 155 | 0.0 | 0.0 | 0.00 | 0.00 | 0.00 | 74 | 1014.8 |
| 20260506032536 | 61 | 162 | 0.0 | 0.0 | 0.00 | 0.00 | 0.00 | 73 | 1014.8 |
| 20260506032032 | 61 | 151 | 0.0 | 0.0 | 0.00 | 0.00 | 0.00 | 72 | 1014.7 |
| 20260506031530 | 62 | 144 | 0.0 | 0.0 | 0.00 | 0.00 | 0.00 | 71 | 1014.5 |
| 20260506031027 | 62 | 172 | 0.0 | 0.0 | 0.00 | 0.00 | 0.00 | 71 | 1014.6 |
| 20260506030525 | 62 | 179 | 0.0 | 0.0 | 0.00 | 0.00 | 0.00 | 70 | 1014.4 |
| 20260506030022 | 62 | 148 | 0.0 | 0.0 | 0.00 | 0.00 | 0.00 | 70 | 1014.6 |
| 20260506025519 | 62 | 196 | 2.6 | 2.6 | 0.00 | 0.00 | 0.00 | 69 | 1014.6 |
| 20260506025015 | 63 | 183 | 3.5 | 4.3 | 0.00 | 0.00 | 0.00 | 69 | 1014.6 |
| 20260506024512 | 63 | 192 | 0.0 | 0.0 | 0.00 | 0.00 | 0.00 | 68 | 1014.6 |
| 20260506024008 | 63 | 188 | 2.6 | 2.6 | 0.00 | 0.00 | 0.00 | 68 | 1014.6 |
| 20260506023505 | 64 | 204 | 2.6 | 4.3 | 0.00 | 0.00 | 0.00 | 67 | 1014.4 |
| 20260506023002 | 64 | 187 | 0.0 | 0.0 | 0.00 | 0.00 | 0.00 | 66 | 1014.4 |
| 20260506022500 | 64 | 190 | 4.3 | 5.2 | 0.00 | 0.00 | 0.00 | 66 | 1014.5 |
| 20260506021957 | 64 | 205 | 1.7 | 1.7 | 0.00 | 0.00 | 0.00 | 67 | 1014.5 |
| 20260506021454 | 64 | 166 | 0.9 | 1.7 | 0.00 | 0.00 | 0.00 | 67 | 1014.5 |
| 20260506020951 | 65 | 209 | 2.6 | 2.6 | 0.00 | 0.00 | 0.00 | 66 | 1014.5 |
| 20260506020449 | 65 | 196 | 2.6 | 2.6 | 0.00 | 0.00 | 0.00 | 65 | 1014.6 |
| 20260506015946 | 65 | 207 | 2.6 | 2.6 | 0.00 | 0.00 | 0.00 | 64 | 1014.3 |
| 20260506015443 | 65 | 182 | 1.7 | 2.6 | 0.00 | 0.00 | 0.00 | 64 | 1014.6 |
| 20260506014940 | 65 | 182 | 1.7 | 2.6 | 0.00 | 0.00 | 0.00 | 64 | 1014.5 |
| 20260506014437 | 65 | 204 | 1.7 | 2.6 | 0.00 | 0.00 | 0.00 | 65 | 1014.5 |
| 20260506013933 | 65 | 259 | 4.3 | 5.2 | 0.00 | 0.00 | 0.00 | 64 | 1014.6 |
| 20260506013432 | 66 | 242 | 2.6 | 2.6 | 0.00 | 0.00 | 0.00 | 64 | 1014.4 |
| 20260506012928 | 66 | 181 | 1.7 | 1.7 | 0.00 | 0.00 | 0.00 | 64 | 1014.4 |
| 20260506012424 | 66 | 169 | 0.0 | 0.0 | 0.00 | 0.00 | 0.00 | 64 | 1014.3 |
| 20260506011921 | 66 | 206 | 1.7 | 1.7 | 0.00 | 0.00 | 0.00 | 64 | 1014.5 |
| 20260506011419 | 66 | 188 | 1.7 | 1.7 | 0.00 | 0.00 | 0.00 | 65 | 1014.5 |
| 20260506010915 | 67 | 196 | 1.7 | 1.7 | 0.00 | 0.00 | 0.00 | 63 | 1014.6 |
| 20260506010414 | 67 | 281 | 4.3 | 6.1 | 0.00 | 0.00 | 0.00 | 62 | 1014.5 |
| 20260506005910 | 66 | 237 | 2.6 | 2.6 | 0.00 | 0.00 | 0.00 | 64 | 1014.5 |
| 20260506005408 | 67 | 211 | 5.2 | 6.1 | 0.00 | 0.00 | 0.00 | 63 | 1014.5 |
| 20260506004903 | 67 | 214 | 0.9 | 0.9 | 0.00 | 0.00 | 0.00 | 62 | 1014.4 |
| 20260506004401 | 66 | 280 | 2.6 | 2.6 | 0.00 | 0.00 | 0.00 | 63 | 1014.3 |
| 20260506003857 | 67 | 195 | 1.7 | 2.6 | 0.00 | 0.00 | 0.00 | 62 | 1014.4 |
| 20260506003353 | 67 | 165 | 1.7 | 1.7 | 0.00 | 0.00 | 0.00 | 62 | 1014.3 |
| 20260506002850 | 68 | 213 | 4.3 | 5.2 | 0.00 | 0.00 | 0.00 | 62 | 1014.5 |
| 20260506002346 | 68 | 214 | 4.3 | 5.2 | 0.00 | 0.00 | 0.00 | 61 | 1014.2 |
| 20260506001842 | 68 | 211 | 4.3 | 6.1 | 0.00 | 0.00 | 0.00 | 61 | 1014.5 |
| 20260506001339 | 68 | 203 | 0.9 | 1.7 | 0.00 | 0.00 | 0.00 | 61 | 1014.4 |
| 20260506000836 | 68 | 222 | 0.0 | 0.0 | 0.00 | 0.00 | 0.00 | 61 | 1014.6 |
| 20260506000334 | 67 | 194 | 1.7 | 2.6 | 0.00 | 0.00 | 0.00 | 62 | 1014.4 |
| 20260505235830 | 67 | 255 | 2.6 | 2.6 | 0.00 | 0.00 | 0.00 | 64 | 1014.5 |
| 20260505235328 | 68 | 239 | 2.6 | 4.3 | 0.00 | 0.00 | 0.00 | 62 | 1014.6 |
| 20260505234824 | 68 | 252 | 2.6 | 2.6 | 0.00 | 0.00 | 0.00 | 63 | 1014.6 |
| 20260505234323 | 68 | 272 | 2.6 | 4.3 | 0.00 | 0.00 | 0.00 | 61 | 1014.7 |
| 20260505233819 | 68 | 209 | 3.5 | 4.3 | 0.00 | 0.00 | 0.00 | 63 | 1014.8 |
| 20260505233317 | 67 | 208 | 2.6 | 2.6 | 0.00 | 0.00 | 0.00 | 64 | 1014.8 |
| 20260505232814 | 67 | 275 | 0.9 | 1.7 | 0.00 | 0.00 | 0.00 | 65 | 1014.9 |
| 20260505232312 | 67 | 288 | 4.3 | 5.2 | 0.00 | 0.00 | 0.00 | 64 | 1014.9 |
| 20260505231808 | 68 | 177 | 0.0 | 0.9 | 0.00 | 0.00 | 0.00 | 63 | 1015.1 |
| 20260505231307 | 66 | 275 | 5.2 | 6.1 | 0.00 | 0.00 | 0.00 | 65 | 1015.0 |
| 20260505230804 | 67 | 270 | 4.3 | 6.1 | 0.00 | 0.00 | 0.00 | 64 | 1015.0 |
| 20260505230301 | 68 | 231 | 1.7 | 1.7 | 0.00 | 0.00 | 0.00 | 63 | 1015.1 |
| 20260505225757 | 67 | 277 | 0.9 | 1.7 | 0.00 | 0.00 | 0.00 | 64 | 1015.1 |
| 20260505225255 | 68 | 209 | 1.7 | 2.6 | 0.00 | 0.00 | 0.00 | 62 | 1015.1 |
| 20260505224749 | 68 | 269 | 2.6 | 4.3 | 0.00 | 0.00 | 0.00 | 62 | 1015.4 |
| 20260505224248 | 66 | 274 | 1.7 | 2.6 | 0.00 | 0.00 | 0.00 | 64 | 1015.3 |
| 20260505223745 | 68 | 261 | 4.3 | 5.2 | 0.00 | 0.00 | 0.00 | 63 | 1015.1 |
| 20260505223241 | 67 | 208 | 3.5 | 4.3 | 0.00 | 0.00 | 0.00 | 64 | 1015.2 |
| 20260505222737 | 66 | 242 | 4.3 | 5.2 | 0.00 | 0.00 | 0.00 | 65 | 1015.3 |
| 20260505222234 | 66 | 273 | 6.1 | 7.8 | 0.00 | 0.00 | 0.00 | 67 | 1015.2 |
| 20260505221731 | 66 | 266 | 6.1 | 7.8 | 0.00 | 0.00 | 0.00 | 66 | 1015.4 |
| 20260505221227 | 66 | 235 | 2.6 | 4.3 | 0.00 | 0.00 | 0.00 | 66 | 1015.3 |
| 20260505220724 | 66 | 271 | 6.1 | 7.0 | 0.00 | 0.00 | 0.00 | 65 | 1015.4 |
| 20260505220222 | 66 | 307 | 8.7 | 9.6 | 0.00 | 0.00 | 0.00 | 66 | 1015.4 |
| 20260505215720 | 66 | 296 | 9.6 | 11.3 | 0.00 | 0.00 | 0.00 | 65 | 1015.3 |
| 20260505215217 | 66 | 254 | 5.2 | 5.2 | 0.00 | 0.00 | 0.00 | 66 | 1015.4 |
| 20260505214715 | 66 | 268 | 6.1 | 7.0 | 0.00 | 0.00 | 0.00 | 66 | 1015.5 |
| 20260505214212 | 67 | 272 | 3.5 | 5.2 | 0.00 | 0.00 | 0.00 | 63 | 1015.4 |
| 20260505213709 | 67 | 136 | 2.6 | 4.3 | 0.00 | 0.00 | 0.00 | 65 | 1015.4 |
| 20260505213207 | 66 | 242 | 6.1 | 7.0 | 0.00 | 0.00 | 0.00 | 66 | 1015.5 |
| 20260505212702 | 67 | 264 | 6.1 | 8.7 | 0.00 | 0.00 | 0.00 | 64 | 1015.4 |
| 20260505212200 | 67 | 191 | 3.5 | 4.3 | 0.00 | 0.00 | 0.00 | 64 | 1015.6 |
| 20260505211657 | 68 | 263 | 6.1 | 7.0 | 0.00 | 0.00 | 0.00 | 63 | 1015.6 |
| 20260505211154 | 67 | 272 | 4.3 | 5.2 | 0.00 | 0.00 | 0.00 | 65 | 1015.6 |
| 20260505210650 | 67 | 256 | 5.2 | 6.1 | 0.00 | 0.00 | 0.00 | 65 | 1015.7 |
| 20260505210147 | 66 | 221 | 2.6 | 4.3 | 0.00 | 0.00 | 0.00 | 65 | 1015.8 |
| 20260505205645 | 66 | 238 | 4.3 | 5.2 | 0.00 | 0.00 | 0.00 | 65 | 1015.8 |
| 20260505205143 | 66 | 196 | 1.7 | 1.7 | 0.00 | 0.00 | 0.00 | 67 | 1015.8 |
| 20260505204639 | 66 | 200 | 6.1 | 7.8 | 0.00 | 0.00 | 0.00 | 66 | 1015.9 |
| 20260505204137 | 66 | 185 | 1.7 | 2.6 | 0.00 | 0.00 | 0.00 | 66 | 1015.9 |
| 20260505203634 | 66 | 206 | 2.6 | 2.6 | 0.00 | 0.00 | 0.00 | 67 | 1015.8 |
| 20260505203131 | 66 | 152 | 1.7 | 2.6 | 0.00 | 0.00 | 0.00 | 66 | 1015.8 |
| 20260505202626 | 65 | 269 | 2.6 | 6.1 | 0.00 | 0.00 | 0.00 | 68 | 1016.0 |
| 20260505202123 | 64 | 251 | 3.5 | 5.2 | 0.00 | 0.00 | 0.00 | 71 | 1015.8 |
| 20260505201619 | 64 | 216 | 2.6 | 5.2 | 0.00 | 0.00 | 0.00 | 69 | 1015.9 |
| 20260505201117 | 64 | 251 | 5.2 | 6.1 | 0.00 | 0.00 | 0.00 | 71 | 1016.0 |
| 20260505200615 | 65 | 197 | 4.3 | 6.1 | 0.00 | 0.00 | 0.00 | 69 | 1016.0 |
| 20260505200112 | 65 | 225 | 0.9 | 1.7 | 0.00 | 0.00 | 0.00 | 68 | 1016.0 |
| 20260505195608 | 65 | 196 | 2.6 | 2.6 | 0.00 | 0.00 | 0.00 | 67 | 1016.1 |
| 20260505195106 | 64 | 256 | 2.6 | 2.6 | 0.00 | 0.00 | 0.00 | 69 | 1016.2 |
| 20260505194603 | 64 | 189 | 2.6 | 4.3 | 0.00 | 0.00 | 0.00 | 71 | 1016.1 |
| 20260505194058 | 63 | 199 | 3.5 | 4.3 | 0.00 | 0.00 | 0.00 | 71 | 1016.1 |
| 20260505193555 | 63 | 226 | 2.6 | 4.3 | 0.00 | 0.00 | 0.00 | 72 | 1016.0 |
| 20260505193052 | 62 | 278 | 4.3 | 5.2 | 0.00 | 0.00 | 0.00 | 74 | 1016.0 |
| 20260505192551 | 63 | 266 | 4.3 | 5.2 | 0.00 | 0.00 | 0.00 | 73 | 1016.3 |
| 20260505192048 | 62 | 200 | 1.7 | 4.3 | 0.00 | 0.00 | 0.00 | 74 | 1016.1 |
| 20260505191546 | 63 | 206 | 2.6 | 4.3 | 0.00 | 0.00 | 0.00 | 74 | 1016.2 |
| 20260505191044 | 63 | 285 | 4.3 | 6.1 | 0.00 | 0.00 | 0.00 | 74 | 1016.1 |
| 20260505190538 | 62 | 247 | 1.7 | 2.6 | 0.00 | 0.00 | 0.00 | 75 | 1016.1 |
| 20260505190034 | 63 | 257 | 2.6 | 4.3 | 0.00 | 0.00 | 0.00 | 73 | 1016.1 |
| 20260505185531 | 62 | 264 | 4.3 | 5.2 | 0.00 | 0.00 | 0.00 | 76 | 1016.1 |
| 20260505185028 | 62 | 238 | 4.3 | 5.2 | 0.00 | 0.00 | 0.00 | 75 | 1016.3 |
| 20260505184525 | 63 | 297 | 5.2 | 6.1 | 0.00 | 0.00 | 0.00 | 76 | 1015.9 |
| 20260505184021 | 63 | 181 | 2.6 | 4.3 | 0.00 | 0.00 | 0.00 | 72 | 1016.1 |
| 20260505183518 | 62 | 286 | 3.5 | 4.3 | 0.00 | 0.00 | 0.00 | 75 | 1016.0 |
| 20260505183016 | 62 | 264 | 4.3 | 5.2 | 0.00 | 0.00 | 0.00 | 76 | 1015.9 |
| 20260505182512 | 63 | 289 | 4.3 | 5.2 | 0.00 | 0.00 | 0.00 | 74 | 1016.1 |
| 20260505182009 | 63 | 262 | 3.5 | 4.3 | 0.00 | 0.00 | 0.00 | 75 | 1016.1 |
| 20260505181505 | 63 | 282 | 3.5 | 4.3 | 0.00 | 0.00 | 0.00 | 74 | 1015.9 |
| 20260505181003 | 62 | 267 | 5.2 | 7.0 | 0.00 | 0.00 | 0.00 | 75 | 1016.0 |
| 20260505180458 | 63 | 186 | 0.0 | 0.0 | 0.00 | 0.00 | 0.00 | 74 | 1015.8 |
| 20260505175955 | 63 | 213 | 0.9 | 4.3 | 0.00 | 0.00 | 0.00 | 74 | 1016.0 |
| 20260505175451 | 62 | 256 | 0.9 | 2.6 | 0.00 | 0.00 | 0.00 | 74 | 1015.9 |
| 20260505174948 | 62 | 167 | 0.0 | 0.0 | 0.00 | 0.00 | 0.00 | 74 | 1015.9 |
| 20260505174445 | 62 | 196 | 2.6 | 2.6 | 0.00 | 0.00 | 0.00 | 75 | 1015.9 |
| 20260505173941 | 61 | 194 | 0.9 | 0.9 | 0.00 | 0.00 | 0.00 | 78 | 1016.0 |
| 20260505173438 | 61 | 182 | 2.6 | 2.6 | 0.00 | 0.00 | 0.00 | 77 | 1016.1 |
| 20260505172935 | 60 | 218 | 4.3 | 5.2 | 0.00 | 0.00 | 0.00 | 78 | 1016.0 |
| 20260505172433 | 61 | 280 | 3.5 | 4.3 | 0.00 | 0.00 | 0.00 | 78 | 1016.1 |
| 20260505171932 | 60 | 184 | 0.9 | 2.6 | 0.00 | 0.00 | 0.00 | 77 | 1016.0 |
| 20260505171430 | 61 | 248 | 2.6 | 4.3 | 0.00 | 0.00 | 0.00 | 76 | 1016.0 |
| 20260505170926 | 61 | 147 | 1.7 | 2.6 | 0.00 | 0.00 | 0.00 | 77 | 1016.1 |
| 20260505170423 | 61 | 125 | 0.0 | 0.0 | 0.00 | 0.00 | 0.00 | 78 | 1016.1 |
| 20260505165918 | 60 | 176 | 0.9 | 1.7 | 0.00 | 0.00 | 0.00 | 78 | 1016.1 |
| 20260505165415 | 60 | 200 | 1.7 | 2.6 | 0.00 | 0.00 | 0.00 | 77 | 1016.2 |
| 20260505164910 | 61 | 145 | 1.7 | 2.6 | 0.00 | 0.00 | 0.00 | 79 | 1016.1 |
| 20260505164407 | 60 | 149 | 0.0 | 0.0 | 0.00 | 0.00 | 0.00 | 78 | 1016.1 |
| 20260505163905 | 60 | 166 | 2.6 | 2.6 | 0.00 | 0.00 | 0.00 | 80 | 1016.0 |
| 20260505163404 | 59 | 167 | 3.5 | 4.3 | 0.00 | 0.00 | 0.00 | 81 | 1016.0 |
| 20260505162902 | 60 | 187 | 0.0 | 0.0 | 0.00 | 0.00 | 0.00 | 80 | 1016.0 |
| 20260505162357 | 59 | 127 | 0.0 | 0.0 | 0.00 | 0.00 | 0.00 | 82 | 1015.8 |
| 20260505161855 | 59 | 173 | 2.6 | 4.3 | 0.00 | 0.00 | 0.00 | 81 | 1015.9 |
| 20260505161351 | 59 | 185 | 4.3 | 6.1 | 0.00 | 0.00 | 0.00 | 81 | 1016.0 |
| 20260505160849 | 60 | 156 | 2.6 | 2.6 | 0.00 | 0.00 | 0.00 | 80 | 1015.9 |
| 20260505160347 | 58 | 176 | 0.0 | 0.0 | 0.00 | 0.00 | 0.00 | 82 | 1015.9 |
| 20260505153326 | 59 | 128 | 2.6 | 4.3 | 0.00 | 0.00 | 0.00 | 80 | 1015.9 |
| 20260505152822 | 58 | 205 | 3.5 | 4.3 | 0.00 | 0.00 | 0.00 | 81 | 1015.8 |
| 20260505152319 | 58 | 218 | 4.3 | 5.2 | 0.00 | 0.00 | 0.00 | 81 | 1015.8 |
| 20260505151814 | 58 | 194 | 1.7 | 1.7 | 0.00 | 0.00 | 0.00 | 80 | 1015.6 |
| 20260505151311 | 59 | 213 | 0.0 | 0.9 | 0.00 | 0.00 | 0.00 | 79 | 1015.8 |
| 20260505150808 | 58 | 248 | 2.6 | 4.3 | 0.00 | 0.00 | 0.00 | 81 | 1015.6 |
| 20260505150305 | 58 | 222 | 0.0 | 0.0 | 0.00 | 0.00 | 0.00 | 81 | 1015.6 |
| 20260505140229 | 57 | 126 | 2.6 | 2.6 | 0.00 | 0.00 | 0.00 | 82 | 1015.0 |
| 20260505130153 | 56 | 128 | 0.0 | 0.0 | 0.00 | 0.00 | 0.00 | 82 | 1014.3 |
| 20260505124643 | 56 | 116 | 0.0 | 0.0 | 0.00 | 0.00 | 0.00 | 79 | 1014.2 |
| 20260505124139 | 56 | 118 | 0.0 | 0.0 | 0.00 | 0.00 | 0.00 | 79 | 1014.1 |
| 20260505123635 | 56 | 122 | 0.0 | 0.0 | 0.00 | 0.00 | 0.00 | 78 | 1013.9 |
| 20260505123132 | 57 | 117 | 0.0 | 0.0 | 0.00 | 0.00 | 0.00 | 77 | 1013.9 |
| 20260505122629 | 57 | 124 | 0.0 | 0.0 | 0.00 | 0.00 | 0.00 | 76 | 1014.0 |
| 20260505122126 | 57 | 121 | 0.0 | 0.0 | 0.00 | 0.00 | 0.00 | 76 | 1013.9 |
| 20260505121622 | 57 | 122 | 0.0 | 0.0 | 0.00 | 0.00 | 0.00 | 76 | 1013.8 |
| 20260505121119 | 57 | 116 | 0.0 | 0.0 | 0.00 | 0.00 | 0.00 | 76 | 1013.9 |
| 20260505120615 | 57 | 116 | 0.0 | 0.0 | 0.00 | 0.00 | 0.00 | 76 | 1013.7 |
| 20260505120112 | 57 | 120 | 0.0 | 0.0 | 0.00 | 0.00 | 0.00 | 76 | 1013.6 |
| 20260505115606 | 57 | 113 | 0.0 | 0.0 | 0.00 | 0.00 | 0.00 | 77 | 1013.7 |
| 20260505115104 | 57 | 108 | 0.0 | 0.0 | 0.00 | 0.00 | 0.00 | 76 | 1013.6 |
| 20260505114601 | 57 | 101 | 0.0 | 0.0 | 0.00 | 0.00 | 0.00 | 76 | 1013.5 |
| 20260505114057 | 57 | 121 | 0.0 | 0.0 | 0.00 | 0.00 | 0.00 | 76 | 1013.4 |
| 20260505113553 | 57 | 61 | 0.9 | 0.9 | 0.00 | 0.00 | 0.00 | 76 | 1013.5 |
| 20260505113050 | 56 | 110 | 0.0 | 0.0 | 0.00 | 0.00 | 0.00 | 77 | 1013.4 |
| 20260505112546 | 56 | 113 | 0.0 | 0.0 | 0.00 | 0.00 | 0.00 | 80 | 1013.0 |
| 20260505112044 | 55 | 112 | 0.0 | 0.0 | 0.00 | 0.00 | 0.00 | 81 | 1013.3 |
| 20260505111538 | 55 | 113 | 0.0 | 0.0 | 0.00 | 0.00 | 0.00 | 82 | 1013.3 |
| 20260505111035 | 55 | 105 | 0.0 | 0.0 | 0.00 | 0.00 | 0.00 | 82 | 1013.2 |
| 20260505110531 | 55 | 108 | 0.0 | 0.9 | 0.00 | 0.00 | 0.00 | 83 | 1013.2 |
| 20260505102004 | 57 | 120 | 0.0 | 0.0 | 0.00 | 0.00 | 0.00 | 79 | 1012.7 |
| 20260505101501 | 57 | 120 | 0.0 | 0.0 | 0.00 | 0.00 | 0.00 | 79 | 1012.7 |
| 20260505100958 | 57 | 120 | 0.0 | 0.0 | 0.00 | 0.00 | 0.00 | 79 | 1012.3 |
| 20260505100455 | 57 | 119 | 0.0 | 0.0 | 0.00 | 0.00 | 0.00 | 79 | 1012.3 |
| 20260505095951 | 57 | 119 | 0.0 | 0.0 | 0.00 | 0.00 | 0.00 | 78 | 1012.4 |
| 20260505095448 | 57 | 138 | 0.0 | 0.0 | 0.00 | 0.00 | 0.00 | 78 | 1012.2 |
| 20260505094944 | 58 | 144 | 0.0 | 0.0 | 0.00 | 0.00 | 0.00 | 77 | 1012.3 |
| 20260505094441 | 57 | 129 | 0.9 | 0.9 | 0.00 | 0.00 | 0.00 | 77 | 1012.2 |
| 20260505093937 | 58 | 162 | 0.0 | 0.0 | 0.00 | 0.00 | 0.00 | 79 | 1012.1 |
| 20260505093434 | 58 | 131 | 0.0 | 0.0 | 0.00 | 0.00 | 0.00 | 79 | 1012.1 |
| 20260505092931 | 58 | 129 | 0.0 | 0.0 | 0.00 | 0.00 | 0.00 | 79 | 1012.0 |
| 20260505092429 | 58 | 138 | 0.0 | 0.0 | 0.00 | 0.00 | 0.00 | 79 | 1012.1 |